Time;durP1;ratioP1;P1;durP2;ratioP2;P2;SDS_P1;SDS_P2;PMS_P1;PMS_P2;Temp;Humidity;BMP_temperature;BMP_pressure;BME280_temperature;BME280_humidity;BME280_pressure;Samples;Min_cycle;Max_cycle;Signal;HPM_P1;HPM_P2
2023/01/22 00:02:09;;;;;;;;;;;6.70;59.40;;;;;;4957608;29;19914;-93
2023/01/22 00:04:35;;;;;;;;;;;6.70;59.60;;;;;;4958904;28;19919;-89
2023/01/22 00:07:01;;;;;;;;;;;6.70;59.80;;;;;;4957232;28;19926;-91
2023/01/22 00:09:27;;;;;;;;;;;6.60;59.90;;;;;;4966633;28;19918;-89
2023/01/22 00:11:56;;;;;;;;;;;6.60;60.00;;;;;;4953259;29;19899;-93
2023/01/22 00:14:22;;;;;;;;;;;6.60;60.20;;;;;;4952163;28;19962;-91
2023/01/22 00:16:49;;;;;;;;;;;6.60;60.30;;;;;;4955436;28;19914;-92
2023/01/22 00:19:15;;;;;;;;;;;6.60;60.40;;;;;;4967860;28;19922;-90
2023/01/22 00:21:41;;;;;;;;;;;6.50;60.50;;;;;;4949552;28;20370;-91
2023/01/22 00:24:07;;;;;;;;;;;6.60;60.60;;;;;;4951793;28;19914;-90
2023/01/22 00:26:33;;;;;;;;;;;6.50;60.70;;;;;;4953342;28;19974;-94
2023/01/22 00:28:59;;;;;;;;;;;6.50;60.80;;;;;;4967059;28;19921;-93
2023/01/22 00:31:37;;;;;;;;;;;;;;;;;;;;;
2023/01/22 00:34:03;;;;;;;;;;;6.50;61.00;;;;;;4951158;28;19921;-93
2023/01/22 00:36:29;;;;;;;;;;;6.50;61.00;;;;;;4937957;29;20009;-94
2023/01/22 00:38:57;;;;;;;;;;;6.40;61.10;;;;;;4964352;28;20546;-91
2023/01/22 00:41:23;;;;;;;;;;;6.50;61.20;;;;;;4961011;28;20281;-92
2023/01/22 00:43:53;;;;;;;;;;;6.50;61.20;;;;;;4944520;28;19922;-91
2023/01/22 00:46:22;;;;;;;;;;;6.50;61.40;;;;;;4951293;28;19922;-95
2023/01/22 00:49:11;;;;;;;;;;;6.50;61.40;;;;;;4968022;28;19922;-94
2023/01/22 00:51:39;;;;;;;;;;;6.50;61.40;;;;;;4957906;28;19954;-90
2023/01/22 00:54:08;;;;;;;;;;;6.50;61.50;;;;;;4954269;28;19925;-92
2023/01/22 00:56:33;;;;;;;;;;;6.50;61.50;;;;;;4942805;28;20458;-90
2023/01/22 00:58:59;;;;;;;;;;;6.50;61.60;;;;;;4969049;28;19946;-95
2023/01/22 01:01:38;;;;;;;;;;;;;;;;;;;;;
2023/01/22 01:04:13;;;;;;;;;;;6.40;61.70;;;;;;4939180;28;20029;-93
2023/01/22 01:06:39;;;;;;;;;;;6.50;61.80;;;;;;4953008;28;19938;-96
2023/01/22 01:09:07;;;;;;;;;;;6.50;61.80;;;;;;4969992;28;19918;-94
2023/01/22 01:11:33;;;;;;;;;;;6.50;61.90;;;;;;4956911;28;20274;-94
2023/01/22 01:14:00;;;;;;;;;;;6.40;61.90;;;;;;4955363;28;20439;-92
2023/01/22 01:16:28;;;;;;;;;;;6.50;62.00;;;;;;4952763;28;20506;-94
2023/01/22 01:19:01;;;;;;;;;;;6.40;62.00;;;;;;4962469;28;19922;-92
2023/01/22 01:21:26;;;;;;;;;;;6.40;62.10;;;;;;4956968;28;20345;-93
2023/01/22 01:23:53;;;;;;;;;;;6.40;62.20;;;;;;4941805;29;20046;-94
2023/01/22 01:26:19;;;;;;;;;;;6.40;62.20;;;;;;4958047;29;20046;-91
2023/01/22 01:28:44;;;;;;;;;;;6.30;62.30;;;;;;4953881;29;19942;-91
2023/01/22 01:31:11;;;;;;;;;;;6.40;62.40;;;;;;4952522;29;19922;-90
2023/01/22 01:33:36;;;;;;;;;;;6.40;62.40;;;;;;4956737;29;19926;-91
2023/01/22 01:36:04;;;;;;;;;;;6.40;62.40;;;;;;4952608;28;19942;-91
2023/01/22 01:38:30;;;;;;;;;;;6.40;62.30;;;;;;4951757;29;19922;-91
2023/01/22 01:40:55;;;;;;;;;;;6.40;62.30;;;;;;4959215;28;19909;-91
2023/01/22 01:43:21;;;;;;;;;;;6.40;62.20;;;;;;4959585;28;19943;-91
2023/01/22 01:45:47;;;;;;;;;;;6.40;62.20;;;;;;4963529;28;19930;-90
2023/01/22 01:48:15;;;;;;;;;;;6.40;62.30;;;;;;4954600;29;19922;-91
2023/01/22 01:50:42;;;;;;;;;;;6.50;62.30;;;;;;4958867;29;20370;-91
2023/01/22 01:53:08;;;;;;;;;;;6.50;62.30;;;;;;4958918;28;19977;-90
2023/01/22 01:55:34;;;;;;;;;;;6.50;62.20;;;;;;4955525;28;19954;-94
2023/01/22 01:58:03;;;;;;;;;;;6.50;62.20;;;;;;4956975;28;19918;-91
2023/01/22 02:00:32;;;;;;;;;;;6.50;62.20;;;;;;4957061;28;19914;-92
2023/01/22 02:02:58;;;;;;;;;;;6.50;62.20;;;;;;4959160;28;19919;-92
2023/01/22 02:05:24;;;;;;;;;;;6.50;62.20;;;;;;4961301;28;19915;-94
2023/01/22 02:07:50;;;;;;;;;;;6.50;62.20;;;;;;4962256;28;20001;-93
2023/01/22 02:10:15;;;;;;;;;;;6.50;62.30;;;;;;4958175;29;19961;-91
2023/01/22 02:12:41;;;;;;;;;;;6.50;62.30;;;;;;4954565;28;20368;-93
2023/01/22 02:15:07;;;;;;;;;;;6.50;62.30;;;;;;4959296;28;19915;-92
2023/01/22 02:17:32;;;;;;;;;;;6.50;62.40;;;;;;4955580;28;19925;-90
2023/01/22 02:19:58;;;;;;;;;;;6.50;62.40;;;;;;4951235;29;19911;-91
2023/01/22 02:22:28;;;;;;;;;;;6.50;62.50;;;;;;4936596;29;20021;-90
2023/01/22 02:24:56;;;;;;;;;;;6.50;62.40;;;;;;4946657;29;19919;-94
2023/01/22 02:27:22;;;;;;;;;;;6.50;62.40;;;;;;4956182;29;20299;-94
2023/01/22 02:29:48;;;;;;;;;;;6.60;62.30;;;;;;4940489;29;19927;-93
2023/01/22 02:32:13;;;;;;;;;;;6.60;62.40;;;;;;4942950;29;19930;-94
2023/01/22 02:34:39;;;;;;;;;;;6.60;62.40;;;;;;4940370;29;20349;-92
2023/01/22 02:37:05;;;;;;;;;;;6.60;62.30;;;;;;4942077;29;19962;-93
2023/01/22 02:39:30;;;;;;;;;;;6.60;62.40;;;;;;4939191;29;20413;-91
2023/01/22 02:41:56;;;;;;;;;;;6.60;62.50;;;;;;4939563;29;20446;-93
2023/01/22 02:44:23;;;;;;;;;;;6.60;62.30;;;;;;4941339;29;19926;-91
2023/01/22 02:46:51;;;;;;;;;;;6.60;62.40;;;;;;4937980;29;19953;-92
2023/01/22 02:49:17;;;;;;;;;;;6.60;62.30;;;;;;4947348;29;19926;-95
2023/01/22 02:51:43;;;;;;;;;;;6.50;62.40;;;;;;4952331;29;19919;-91
2023/01/22 02:54:12;;;;;;;;;;;6.60;62.40;;;;;;4943426;29;19914;-94
2023/01/22 02:56:38;;;;;;;;;;;6.60;62.40;;;;;;4937695;29;19918;-90
2023/01/22 02:59:04;;;;;;;;;;;6.60;62.50;;;;;;4940033;29;20422;-92
2023/01/22 03:01:29;;;;;;;;;;;6.50;62.60;;;;;;4939596;29;19930;-91
2023/01/22 03:03:56;;;;;;;;;;;6.50;62.70;;;;;;4941278;29;19915;-91
2023/01/22 03:06:23;;;;;;;;;;;6.60;62.70;;;;;;4939345;29;20033;-91
2023/01/22 03:08:54;;;;;;;;;;;6.60;62.60;;;;;;4953690;29;20333;-94
2023/01/22 03:11:20;;;;;;;;;;;6.60;62.60;;;;;;4936665;29;19927;-91
2023/01/22 03:21:59;;;;;;;;;;;6.50;62.60;;;;;;4938652;29;20459;-94
2023/01/22 03:24:25;;;;;;;;;;;6.60;62.70;;;;;;4939758;29;19915;-91
2023/01/22 03:26:51;;;;;;;;;;;6.60;62.60;;;;;;4939954;29;19922;-92
2023/01/22 03:29:19;;;;;;;;;;;6.60;62.70;;;;;;4936403;29;19962;-92
2023/01/22 03:31:47;;;;;;;;;;;6.60;62.70;;;;;;4940437;29;19979;-91
2023/01/22 03:34:16;;;;;;;;;;;6.70;62.60;;;;;;4939454;29;19957;-90
2023/01/22 03:36:42;;;;;;;;;;;6.70;62.60;;;;;;4934125;29;19918;-93
2023/01/22 03:39:10;;;;;;;;;;;6.70;62.40;;;;;;4938591;29;20422;-90
2023/01/22 03:41:39;;;;;;;;;;;6.70;62.40;;;;;;4935708;29;19922;-95
2023/01/22 03:44:05;;;;;;;;;;;6.70;62.40;;;;;;4937421;29;19910;-91
2023/01/22 03:46:30;;;;;;;;;;;6.70;62.50;;;;;;4936455;29;19930;-91
2023/01/22 03:48:59;;;;;;;;;;;6.70;62.50;;;;;;4942958;29;21355;-93
2023/01/22 03:51:25;;;;;;;;;;;6.70;62.60;;;;;;4943912;29;19915;-94
2023/01/22 03:53:50;;;;;;;;;;;6.60;62.60;;;;;;4934371;29;19918;-93
2023/01/22 03:56:18;;;;;;;;;;;6.60;62.50;;;;;;4937565;29;19919;-89
2023/01/22 03:58:43;;;;;;;;;;;6.70;62.50;;;;;;4940324;29;19910;-91
2023/01/22 04:01:11;;;;;;;;;;;6.70;62.60;;;;;;4936933;29;19911;-92
2023/01/22 04:03:37;;;;;;;;;;;6.70;62.70;;;;;;4934883;29;19914;-89
2023/01/22 04:06:03;;;;;;;;;;;6.70;62.50;;;;;;4935379;29;19933;-93
2023/01/22 04:08:29;;;;;;;;;;;6.70;62.50;;;;;;4938798;29;20010;-92
2023/01/22 04:10:56;;;;;;;;;;;6.70;62.50;;;;;;4933397;29;19925;-90
2023/01/22 04:13:22;;;;;;;;;;;6.70;62.60;;;;;;4933504;29;20263;-93
2023/01/22 04:15:48;;;;;;;;;;;6.60;62.60;;;;;;4936709;29;19922;-94
2023/01/22 04:18:13;;;;;;;;;;;6.70;62.60;;;;;;4942930;29;19922;-92
2023/01/22 04:20:39;;;;;;;;;;;6.70;62.60;;;;;;4952849;29;20374;-92
2023/01/22 04:23:05;;;;;;;;;;;6.70;62.60;;;;;;4953758;28;20382;-89
2023/01/22 04:25:31;;;;;;;;;;;6.60;62.70;;;;;;4953685;28;19917;-90
2023/01/22 04:27:56;;;;;;;;;;;6.70;62.60;;;;;;4954565;28;20049;-94
2023/01/22 04:30:22;;;;;;;;;;;6.70;62.50;;;;;;4954189;29;19923;-92
2023/01/22 04:32:51;;;;;;;;;;;6.70;62.70;;;;;;4958618;28;19906;-92
2023/01/22 04:35:17;;;;;;;;;;;6.60;62.60;;;;;;4952059;29;19914;-93
2023/01/22 04:37:42;;;;;;;;;;;6.70;62.60;;;;;;4953002;28;19923;-90
2023/01/22 04:40:08;;;;;;;;;;;6.60;62.70;;;;;;4952572;29;19911;-92
2023/01/22 04:42:34;;;;;;;;;;;6.70;62.70;;;;;;4954499;28;20289;-91
2023/01/22 04:44:59;;;;;;;;;;;6.60;62.70;;;;;;4952912;29;19961;-93
2023/01/22 04:47:25;;;;;;;;;;;6.60;62.80;;;;;;4951581;28;19922;-90
2023/01/22 04:49:54;;;;;;;;;;;6.60;62.80;;;;;;4953230;29;19917;-92
2023/01/22 04:52:21;;;;;;;;;;;6.60;62.80;;;;;;4954085;29;20023;-89
2023/01/22 04:54:47;;;;;;;;;;;6.70;62.80;;;;;;4953537;28;19981;-94
2023/01/22 04:57:12;;;;;;;;;;;6.70;62.70;;;;;;4953771;29;19919;-95
2023/01/22 04:59:41;;;;;;;;;;;6.60;62.80;;;;;;4954179;29;20289;-95
2023/01/22 05:02:07;;;;;;;;;;;6.60;62.80;;;;;;4954664;29;19922;-91
2023/01/22 05:04:32;;;;;;;;;;;6.60;62.80;;;;;;4958553;29;19910;-94
2023/01/22 05:06:58;;;;;;;;;;;6.60;62.90;;;;;;4956264;29;19931;-92
2023/01/22 05:09:24;;;;;;;;;;;6.60;62.80;;;;;;4955784;29;19910;-91
2023/01/22 05:11:50;;;;;;;;;;;6.60;63.00;;;;;;4958323;28;19934;-93
2023/01/22 05:14:15;;;;;;;;;;;6.60;62.90;;;;;;4955148;29;19930;-91
2023/01/22 05:16:41;;;;;;;;;;;6.60;62.90;;;;;;4953049;29;19918;-92
2023/01/22 05:19:07;;;;;;;;;;;6.60;62.90;;;;;;4941871;29;19918;-96
2023/01/22 05:21:33;;;;;;;;;;;6.60;62.90;;;;;;4952850;28;19919;-91
2023/01/22 05:23:59;;;;;;;;;;;6.60;62.80;;;;;;4942894;29;20544;-95
2023/01/22 05:26:25;;;;;;;;;;;6.60;62.90;;;;;;4937174;29;19970;-95
2023/01/22 05:28:50;;;;;;;;;;;6.60;62.80;;;;;;4939627;29;20005;-91
2023/01/22 05:31:16;;;;;;;;;;;6.60;62.90;;;;;;4954296;29;19933;-93
2023/01/22 05:33:43;;;;;;;;;;;6.60;62.90;;;;;;4940263;29;19918;-92
2023/01/22 05:36:09;;;;;;;;;;;6.60;62.90;;;;;;4957225;29;20326;-95
2023/01/22 05:38:35;;;;;;;;;;;6.60;62.80;;;;;;4955355;29;19915;-92
2023/01/22 05:41:00;;;;;;;;;;;6.60;62.90;;;;;;4956338;29;20673;-90
2023/01/22 05:43:28;;;;;;;;;;;6.70;62.90;;;;;;4953888;29;19915;-92
2023/01/22 05:45:53;;;;;;;;;;;6.70;62.90;;;;;;4960322;28;19922;-92
2023/01/22 05:48:19;;;;;;;;;;;6.60;62.80;;;;;;4954833;29;20412;-92
2023/01/22 05:50:44;;;;;;;;;;;6.60;63.00;;;;;;4958694;28;20377;-96
2023/01/22 05:53:10;;;;;;;;;;;6.70;63.00;;;;;;4956018;29;20255;-91
2023/01/22 05:55:36;;;;;;;;;;;6.70;62.90;;;;;;4939094;29;19970;-90
2023/01/22 05:58:01;;;;;;;;;;;6.70;63.00;;;;;;4957467;29;19919;-95
2023/01/22 06:00:27;;;;;;;;;;;6.70;62.90;;;;;;4953060;29;19915;-91
2023/01/22 06:02:53;;;;;;;;;;;6.70;62.90;;;;;;4955047;29;19931;-94
2023/01/22 06:05:19;;;;;;;;;;;6.70;62.90;;;;;;4952944;29;20326;-93
2023/01/22 06:07:45;;;;;;;;;;;6.70;62.90;;;;;;4951618;29;19915;-92
2023/01/22 06:10:10;;;;;;;;;;;6.70;63.00;;;;;;4953076;29;20014;-94
2023/01/22 06:12:36;;;;;;;;;;;6.70;63.00;;;;;;4952513;29;19954;-90
2023/01/22 06:15:01;;;;;;;;;;;6.60;63.00;;;;;;4952516;29;19966;-91
2023/01/22 06:17:27;;;;;;;;;;;6.70;63.10;;;;;;4940951;29;19997;-93
2023/01/22 06:19:59;;;;;;;;;;;6.70;63.00;;;;;;4953839;29;19919;-93
2023/01/22 06:22:24;;;;;;;;;;;6.70;63.00;;;;;;4957637;28;19915;-93
2023/01/22 06:24:51;;;;;;;;;;;6.70;62.90;;;;;;4956198;28;19926;-92
2023/01/22 06:27:17;;;;;;;;;;;6.70;62.90;;;;;;4956929;28;19941;-94
2023/01/22 06:29:42;;;;;;;;;;;6.70;63.00;;;;;;4956438;29;19914;-91
2023/01/22 06:32:08;;;;;;;;;;;6.70;62.90;;;;;;4956191;28;19922;-92
2023/01/22 06:34:34;;;;;;;;;;;6.70;63.10;;;;;;4955798;29;19911;-95
2023/01/22 06:36:59;;;;;;;;;;;6.60;63.00;;;;;;4954938;29;19919;-92
2023/01/22 06:39:25;;;;;;;;;;;6.60;63.00;;;;;;4955343;28;19910;-90
2023/01/22 06:41:50;;;;;;;;;;;6.60;63.00;;;;;;4955452;29;20317;-92
2023/01/22 06:44:17;;;;;;;;;;;6.70;63.00;;;;;;4954470;29;19914;-93
2023/01/22 06:46:44;;;;;;;;;;;6.70;62.90;;;;;;4954366;28;20282;-94
2023/01/22 06:49:10;;;;;;;;;;;6.70;62.90;;;;;;4957938;29;19961;-94
2023/01/22 06:51:35;;;;;;;;;;;6.60;62.80;;;;;;4954948;28;19958;-91
2023/01/22 06:54:01;;;;;;;;;;;6.70;62.90;;;;;;4960679;28;19902;-94
2023/01/22 06:56:27;;;;;;;;;;;6.60;62.90;;;;;;4957225;29;19923;-90
2023/01/22 06:58:52;;;;;;;;;;;6.70;63.00;;;;;;4954348;29;19910;-92
2023/01/22 07:01:18;;;;;;;;;;;6.70;63.00;;;;;;4957869;29;19918;-93
2023/01/22 07:03:44;;;;;;;;;;;6.70;62.90;;;;;;4956218;29;19910;-95
2023/01/22 07:06:10;;;;;;;;;;;6.70;62.90;;;;;;4954939;28;19910;-91
2023/01/22 07:08:35;;;;;;;;;;;6.70;62.80;;;;;;4954060;29;20380;-91
2023/01/22 07:11:01;;;;;;;;;;;6.70;62.90;;;;;;4955962;29;19950;-91
2023/01/22 07:13:27;;;;;;;;;;;6.70;62.90;;;;;;4952866;29;19941;-92
2023/01/22 07:15:52;;;;;;;;;;;6.70;62.90;;;;;;4957460;28;19930;-94
2023/01/22 07:18:19;;;;;;;;;;;6.70;62.80;;;;;;4957444;29;19962;-96
2023/01/22 07:20:46;;;;;;;;;;;6.70;62.80;;;;;;4959128;29;19910;-93
2023/01/22 07:23:11;;;;;;;;;;;6.80;62.70;;;;;;4957020;29;20013;-90
2023/01/22 07:25:37;;;;;;;;;;;6.80;62.60;;;;;;4956568;29;19960;-95
2023/01/22 07:28:04;;;;;;;;;;;6.80;62.60;;;;;;4953900;29;19919;-91
2023/01/22 07:30:30;;;;;;;;;;;6.80;62.60;;;;;;4958525;28;19919;-90
2023/01/22 07:32:59;;;;;;;;;;;6.80;62.60;;;;;;4958947;28;19925;-95
2023/01/22 07:35:25;;;;;;;;;;;6.80;62.50;;;;;;4958834;28;19957;-94
2023/01/22 07:37:55;;;;;;;;;;;6.80;62.60;;;;;;4954324;29;19919;-95
2023/01/22 07:40:23;;;;;;;;;;;6.80;62.60;;;;;;4953957;29;19911;-93
2023/01/22 07:42:49;;;;;;;;;;;6.80;62.70;;;;;;4953949;29;19973;-96
2023/01/22 07:45:14;;;;;;;;;;;6.80;62.60;;;;;;4953482;28;20351;-91
2023/01/22 07:47:40;;;;;;;;;;;6.80;62.50;;;;;;4954710;29;20789;-93
2023/01/22 07:50:06;;;;;;;;;;;6.80;62.50;;;;;;4953198;28;19926;-95
2023/01/22 07:52:31;;;;;;;;;;;6.80;62.60;;;;;;4952891;29;19953;-93
2023/01/22 07:54:57;;;;;;;;;;;6.90;62.50;;;;;;4954831;29;19933;-91
2023/01/22 07:57:22;;;;;;;;;;;6.90;62.50;;;;;;4956083;29;20021;-94
2023/01/22 07:59:48;;;;;;;;;;;6.90;62.50;;;;;;4962744;28;19962;-91
2023/01/22 08:02:14;;;;;;;;;;;6.90;62.40;;;;;;4956208;28;20122;-95
2023/01/22 08:04:40;;;;;;;;;;;6.90;62.40;;;;;;4952374;29;20054;-95
2023/01/22 08:07:09;;;;;;;;;;;7.00;62.40;;;;;;4960764;28;19915;-91
2023/01/22 08:09:35;;;;;;;;;;;7.00;62.50;;;;;;4956980;28;19911;-94
2023/01/22 08:12:01;;;;;;;;;;;7.00;62.40;;;;;;4964383;29;19937;-92
2023/01/22 08:14:26;;;;;;;;;;;7.00;62.30;;;;;;4953529;29;19914;-91
2023/01/22 08:16:52;;;;;;;;;;;7.00;62.20;;;;;;4955860;28;19919;-94
2023/01/22 08:19:18;;;;;;;;;;;7.00;62.40;;;;;;4941373;29;20466;-90
2023/01/22 08:21:43;;;;;;;;;;;7.00;62.30;;;;;;4940017;29;20030;-90
2023/01/22 08:24:13;;;;;;;;;;;7.00;62.30;;;;;;4938224;29;19925;-90
2023/01/22 08:26:38;;;;;;;;;;;7.00;62.20;;;;;;4935610;29;19938;-90
2023/01/22 08:29:04;;;;;;;;;;;7.00;62.30;;;;;;4934341;29;19911;-93
2023/01/22 08:31:30;;;;;;;;;;;7.00;62.30;;;;;;4932594;29;19926;-89
2023/01/22 08:33:59;;;;;;;;;;;7.00;62.40;;;;;;4950297;29;20463;-92
2023/01/22 08:36:24;;;;;;;;;;;7.00;62.40;;;;;;4948339;29;20026;-91
2023/01/22 08:38:50;;;;;;;;;;;7.00;62.40;;;;;;4937954;29;20020;-90
2023/01/22 08:41:15;;;;;;;;;;;7.00;62.40;;;;;;4944211;29;19922;-93
2023/01/22 08:43:41;;;;;;;;;;;7.10;62.40;;;;;;4958786;28;20379;-90
2023/01/22 08:46:13;;;;;;;;;;;7.10;62.40;;;;;;4951809;29;20259;-95
2023/01/22 08:48:42;;;;;;;;;;;7.10;62.40;;;;;;4960213;28;19964;-92
2023/01/22 08:51:11;;;;;;;;;;;7.00;62.40;;;;;;4950284;28;20279;-91
2023/01/22 08:53:37;;;;;;;;;;;7.10;62.40;;;;;;4955496;28;19942;-96
2023/01/22 08:56:03;;;;;;;;;;;7.10;62.30;;;;;;4956131;28;19921;-91
2023/01/22 08:58:29;;;;;;;;;;;7.10;62.30;;;;;;4953797;28;20278;-96
2023/01/22 09:00:54;;;;;;;;;;;7.10;62.20;;;;;;4958440;28;20310;-96
2023/01/22 09:03:20;;;;;;;;;;;7.20;62.20;;;;;;4960605;28;19918;-89
2023/01/22 09:05:52;;;;;;;;;;;7.20;62.20;;;;;;4957366;28;19993;-89
2023/01/22 09:08:20;;;;;;;;;;;7.20;62.30;;;;;;4959439;28;19930;-90
2023/01/22 09:10:58;;;;;;;;;;;7.20;62.30;;;;;;4937276;28;19942;-89
2023/01/22 09:13:25;;;;;;;;;;;7.30;62.10;;;;;;4954822;28;19914;-90
2023/01/22 09:15:54;;;;;;;;;;;7.30;62.20;;;;;;4957693;28;19941;-94
2023/01/22 09:18:19;;;;;;;;;;;7.30;62.00;;;;;;4959344;28;19918;-96
2023/01/22 09:20:45;;;;;;;;;;;7.30;62.10;;;;;;4962640;28;19911;-92
2023/01/22 09:23:10;;;;;;;;;;;7.30;62.10;;;;;;4958717;28;20360;-88
2023/01/22 09:25:36;;;;;;;;;;;7.40;62.00;;;;;;4958233;28;19914;-92
2023/01/22 09:28:08;;;;;;;;;;;7.50;62.00;;;;;;4958163;28;19918;-90
2023/01/22 09:30:34;;;;;;;;;;;7.50;61.90;;;;;;4966441;28;19926;-90
2023/01/22 09:33:00;;;;;;;;;;;7.50;61.80;;;;;;4954902;28;20043;-91
2023/01/22 09:35:26;;;;;;;;;;;7.60;61.70;;;;;;4954496;28;19926;-88
2023/01/22 09:37:52;;;;;;;;;;;7.50;61.60;;;;;;4957510;28;19958;-91
2023/01/22 09:40:25;;;;;;;;;;;7.60;61.50;;;;;;4958283;28;19961;-94
2023/01/22 09:42:53;;;;;;;;;;;7.60;61.40;;;;;;4960406;28;19923;-90
2023/01/22 09:45:20;;;;;;;;;;;7.60;61.40;;;;;;4955234;28;19911;-93
2023/01/22 09:47:47;;;;;;;;;;;7.60;61.50;;;;;;4956196;28;20354;-88
2023/01/22 09:50:16;;;;;;;;;;;7.60;61.40;;;;;;4960612;28;19945;-92
2023/01/22 09:52:42;;;;;;;;;;;7.60;61.40;;;;;;4954863;28;19938;-93
2023/01/22 09:55:18;;;;;;;;;;;7.60;61.30;;;;;;4961857;28;20309;-89
2023/01/22 09:57:44;;;;;;;;;;;7.60;61.30;;;;;;4957487;28;20389;-93
2023/01/22 10:00:14;;;;;;;;;;;7.50;61.30;;;;;;4961310;28;19910;-91
2023/01/22 10:02:43;;;;;;;;;;;7.50;61.50;;;;;;4956532;28;19919;-88
2023/01/22 10:05:12;;;;;;;;;;;7.60;61.60;;;;;;4954984;28;19934;-85
2023/01/22 10:07:40;;;;;;;;;;;7.60;61.50;;;;;;4959142;28;19925;-93
2023/01/22 10:10:17;;;;;;;;;;;7.60;61.60;;;;;;4968270;28;19949;-88
2023/01/22 10:12:45;;;;;;;;;;;7.60;61.60;;;;;;4955653;28;19918;-87
2023/01/22 10:15:21;;;;;;;;;;;7.60;61.70;;;;;;4947157;28;19914;-93
2023/01/22 10:17:47;;;;;;;;;;;7.70;61.70;;;;;;4953471;28;19993;-94
2023/01/22 10:20:13;;;;;;;;;;;7.70;61.70;;;;;;4963685;28;20497;-93
2023/01/22 10:22:38;;;;;;;;;;;7.70;61.60;;;;;;4975588;28;19925;-90
2023/01/22 10:25:04;;;;;;;;;;;7.70;61.60;;;;;;4958687;28;20419;-89
2023/01/22 10:27:34;;;;;;;;;;;7.80;61.90;;;;;;4948105;28;19933;-91
2023/01/22 10:30:20;;;;;;;;;;;7.80;61.80;;;;;;4954427;28;19990;-91
2023/01/22 10:32:56;;;;;;;;;;;7.90;61.60;;;;;;4951575;29;20437;-91
2023/01/22 10:35:23;;;;;;;;;;;7.80;61.40;;;;;;4957743;28;19918;-93
2023/01/22 10:37:50;;;;;;;;;;;7.80;61.60;;;;;;4943340;28;19950;-92
2023/01/22 10:40:25;;;;;;;;;;;7.80;61.70;;;;;;4957692;28;19962;-91
2023/01/22 10:42:59;;;;;;;;;;;7.80;61.40;;;;;;4950399;28;20337;-92
2023/01/22 10:45:25;;;;;;;;;;;7.90;61.40;;;;;;4935186;28;19914;-89
2023/01/22 10:48:01;;;;;;;;;;;7.80;61.50;;;;;;4944269;28;19927;-93
2023/01/22 10:50:27;;;;;;;;;;;7.80;61.60;;;;;;4958150;28;20010;-94
2023/01/22 10:52:54;;;;;;;;;;;7.80;61.50;;;;;;4955670;28;19970;-94
2023/01/22 10:55:21;;;;;;;;;;;7.90;61.60;;;;;;4953916;28;19918;-91
2023/01/22 10:57:49;;;;;;;;;;;7.90;61.50;;;;;;4943252;28;20009;-88
2023/01/22 11:00:14;;;;;;;;;;;8.00;61.70;;;;;;4958149;28;19960;-93
2023/01/22 11:02:41;;;;;;;;;;;8.10;61.70;;;;;;4952230;28;19926;-88
2023/01/22 11:05:17;;;;;;;;;;;8.10;61.60;;;;;;4951812;28;19918;-94
2023/01/22 11:07:43;;;;;;;;;;;8.10;61.60;;;;;;4951556;28;19922;-92
2023/01/22 11:10:34;;;;;;;;;;;8.20;61.40;;;;;;4954583;28;20008;-90
2023/01/22 11:13:06;;;;;;;;;;;8.20;61.10;;;;;;4953965;28;19903;-93
2023/01/22 11:15:39;;;;;;;;;;;8.20;61.10;;;;;;4955957;28;20365;-89
2023/01/22 11:18:05;;;;;;;;;;;8.10;61.40;;;;;;4953541;28;19918;-88
2023/01/22 11:20:39;;;;;;;;;;;8.20;61.40;;;;;;4954991;28;19918;-92
2023/01/22 11:23:13;;;;;;;;;;;8.20;61.50;;;;;;4953605;28;19930;-92
2023/01/22 11:25:42;;;;;;;;;;;8.20;61.60;;;;;;4949003;28;19926;-90
2023/01/22 11:28:11;;;;;;;;;;;8.30;61.50;;;;;;4951624;28;19923;-95
2023/01/22 11:30:42;;;;;;;;;;;8.30;61.40;;;;;;4954265;28;19933;-91
2023/01/22 11:33:17;;;;;;;;;;;8.40;61.60;;;;;;4952023;28;19996;-92
2023/01/22 11:35:48;;;;;;;;;;;8.40;61.60;;;;;;4955608;28;19954;-91
2023/01/22 11:38:33;;;;;;;;;;;8.40;61.30;;;;;;4949861;28;20121;-92
2023/01/22 11:41:02;;;;;;;;;;;8.40;61.40;;;;;;4955744;28;19922;-88
2023/01/22 11:43:36;;;;;;;;;;;8.50;61.50;;;;;;4951877;28;19918;-94
2023/01/22 11:46:20;;;;;;;;;;;8.50;61.50;;;;;;4956807;28;19927;-92
2023/01/22 11:48:55;;;;;;;;;;;8.60;61.70;;;;;;4956280;28;19973;-87
2023/01/22 11:51:26;;;;;;;;;;;8.70;61.70;;;;;;4963046;28;19942;-94
2023/01/22 11:53:57;;;;;;;;;;;8.60;61.60;;;;;;4935177;29;19922;-94
2023/01/22 11:56:29;;;;;;;;;;;8.70;61.30;;;;;;4955191;28;20552;-91
2023/01/22 11:58:57;;;;;;;;;;;8.70;60.90;;;;;;4948636;29;19915;-92
2023/01/22 12:01:39;;;;;;;;;;;8.60;60.80;;;;;;4967852;28;19922;-91
2023/01/22 12:04:22;;;;;;;;;;;8.60;61.10;;;;;;4935603;29;20660;-92
2023/01/22 12:07:04;;;;;;;;;;;8.60;61.30;;;;;;4937532;29;19918;-93
2023/01/22 12:09:45;;;;;;;;;;;8.60;61.20;;;;;;4954443;28;20393;-92
2023/01/22 12:12:29;;;;;;;;;;;8.50;61.10;;;;;;4975064;28;19930;-92
2023/01/22 12:15:10;;;;;;;;;;;8.50;60.90;;;;;;4963902;28;20025;-93
2023/01/22 12:17:42;;;;;;;;;;;8.40;60.80;;;;;;4935172;29;20374;-93
2023/01/22 12:20:18;;;;;;;;;;;8.40;61.00;;;;;;4946890;28;19933;-89
2023/01/22 12:22:48;;;;;;;;;;;8.40;61.00;;;;;;4954500;28;19993;-91
2023/01/22 12:25:24;;;;;;;;;;;8.40;61.20;;;;;;4956342;28;19984;-94
2023/01/22 12:27:53;;;;;;;;;;;8.30;61.20;;;;;;4954158;28;19926;-93
2023/01/22 12:30:48;;;;;;;;;;;8.30;61.20;;;;;;4958009;28;19929;-92
2023/01/22 12:33:16;;;;;;;;;;;8.40;61.40;;;;;;4940361;28;19934;-90
2023/01/22 12:35:42;;;;;;;;;;;8.30;61.50;;;;;;4951702;28;19946;-94
2023/01/22 12:38:14;;;;;;;;;;;8.40;61.60;;;;;;4954998;28;19923;-90
2023/01/22 12:40:47;;;;;;;;;;;8.40;61.40;;;;;;4955863;28;19981;-89
2023/01/22 12:43:13;;;;;;;;;;;8.40;61.50;;;;;;4954020;28;20267;-90
2023/01/22 12:45:51;;;;;;;;;;;8.40;61.40;;;;;;4949886;28;19929;-89
2023/01/22 12:48:20;;;;;;;;;;;8.40;61.30;;;;;;4936375;29;20330;-90
2023/01/22 12:50:50;;;;;;;;;;;8.40;61.40;;;;;;4951891;28;19922;-93
2023/01/22 12:53:25;;;;;;;;;;;8.40;61.40;;;;;;4954568;28;19919;-91
2023/01/22 12:55:58;;;;;;;;;;;8.40;61.50;;;;;;4946160;29;19945;-92
2023/01/22 12:58:25;;;;;;;;;;;8.40;61.40;;;;;;4948085;28;19965;-90
2023/01/22 13:01:06;;;;;;;;;;;8.40;61.40;;;;;;4954242;28;20345;-95
2023/01/22 13:03:35;;;;;;;;;;;8.40;61.50;;;;;;4954682;28;19922;-93
2023/01/22 13:06:02;;;;;;;;;;;8.50;61.40;;;;;;4954977;28;19960;-90
2023/01/22 13:08:38;;;;;;;;;;;8.40;61.50;;;;;;4953853;28;19910;-94
2023/01/22 13:11:13;;;;;;;;;;;8.40;61.30;;;;;;4957465;28;20377;-89
2023/01/22 13:13:45;;;;;;;;;;;8.40;61.30;;;;;;4950547;28;19914;-89
2023/01/22 13:16:14;;;;;;;;;;;8.40;61.20;;;;;;4951056;28;19918;-89
2023/01/22 13:18:44;;;;;;;;;;;8.40;61.30;;;;;;4955116;28;20309;-90
2023/01/22 13:21:13;;;;;;;;;;;8.40;61.40;;;;;;4956011;28;19993;-90
2023/01/22 13:23:45;;;;;;;;;;;8.40;61.60;;;;;;4953137;28;19929;-89
2023/01/22 13:26:18;;;;;;;;;;;8.40;61.30;;;;;;4948077;29;19972;-90
2023/01/22 13:28:51;;;;;;;;;;;8.30;61.20;;;;;;4952698;29;20032;-92
2023/01/22 13:31:17;;;;;;;;;;;8.30;61.30;;;;;;4947044;28;20394;-88
2023/01/22 13:33:53;;;;;;;;;;;8.30;61.40;;;;;;4957358;28;20305;-89
2023/01/22 13:36:18;;;;;;;;;;;8.30;61.50;;;;;;4951046;28;19922;-92
2023/01/22 13:38:50;;;;;;;;;;;8.30;61.70;;;;;;4954872;29;19961;-89
2023/01/22 13:41:24;;;;;;;;;;;8.40;61.80;;;;;;4953211;28;19923;-91
2023/01/22 13:43:50;;;;;;;;;;;8.40;61.80;;;;;;4935815;29;20186;-95
2023/01/22 13:46:16;;;;;;;;;;;8.50;62.00;;;;;;4955308;28;19977;-90
2023/01/22 13:48:41;;;;;;;;;;;8.50;62.00;;;;;;4954462;28;20016;-90
2023/01/22 13:51:15;;;;;;;;;;;8.60;61.80;;;;;;4969591;28;19922;-90
2023/01/22 13:53:45;;;;;;;;;;;8.60;61.50;;;;;;4978628;28;19929;-91
2023/01/22 13:56:21;;;;;;;;;;;8.60;61.20;;;;;;4960920;28;19918;-92
2023/01/22 13:58:47;;;;;;;;;;;8.60;61.50;;;;;;4967391;28;19927;-95
2023/01/22 14:01:24;;;;;;;;;;;8.60;61.30;;;;;;4970295;28;19922;-91
2023/01/22 14:03:57;;;;;;;;;;;8.50;61.30;;;;;;4953788;29;20025;-92
2023/01/22 14:06:22;;;;;;;;;;;8.50;61.00;;;;;;4954043;29;19926;-90
2023/01/22 14:08:52;;;;;;;;;;;8.50;61.10;;;;;;4958909;28;20009;-89
2023/01/22 14:11:18;;;;;;;;;;;8.40;61.30;;;;;;4954907;28;19927;-90
2023/01/22 14:13:45;;;;;;;;;;;8.40;61.30;;;;;;4957176;28;19917;-95
2023/01/22 14:16:11;;;;;;;;;;;8.40;61.50;;;;;;4958795;29;19955;-95
2023/01/22 14:18:37;;;;;;;;;;;8.40;61.40;;;;;;4942528;29;19927;-91
2023/01/22 14:21:04;;;;;;;;;;;8.40;61.30;;;;;;4961820;28;19995;-90
2023/01/22 14:23:29;;;;;;;;;;;8.40;61.40;;;;;;4960234;28;19923;-94
2023/01/22 14:25:55;;;;;;;;;;;8.40;61.30;;;;;;4964247;28;19982;-96
2023/01/22 14:28:22;;;;;;;;;;;8.30;61.20;;;;;;4959447;28;19922;-96
2023/01/22 14:30:48;;;;;;;;;;;8.30;61.30;;;;;;4961016;28;19926;-91
2023/01/22 14:33:17;;;;;;;;;;;8.30;61.50;;;;;;4959228;29;20069;-92
2023/01/22 14:35:42;;;;;;;;;;;8.20;61.60;;;;;;4952021;28;20455;-90
2023/01/22 14:38:08;;;;;;;;;;;8.30;61.80;;;;;;4961162;28;19941;-89
2023/01/22 14:40:34;;;;;;;;;;;8.30;61.90;;;;;;4955134;28;20027;-90
2023/01/22 14:43:01;;;;;;;;;;;8.30;61.80;;;;;;4957499;28;19915;-92
2023/01/22 14:45:31;;;;;;;;;;;8.30;61.70;;;;;;4961255;28;19945;-90